createdAt,value
2022-09-27T00:00:30.021Z,77.71
2022-09-27T00:02:56.590Z,77.72
2022-09-27T00:05:23.475Z,77.85
2022-09-27T00:07:49.894Z,77.89
2022-09-27T00:10:16.544Z,77.74
2022-09-27T00:12:42.975Z,77.92
2022-09-27T00:15:10.067Z,77.93
2022-09-27T00:17:37.463Z,77.47
2022-09-27T00:20:05.166Z,77.29
2022-09-27T00:22:32.167Z,77.67
2022-09-27T00:24:59.002Z,77.15
2022-09-27T00:27:26.082Z,77.07
2022-09-27T00:29:52.994Z,77.15
2022-09-27T00:32:19.534Z,77.08
2022-09-27T00:34:46.016Z,77.10
2022-09-27T00:37:12.512Z,76.76
2022-09-27T00:39:42.326Z,77.04
2022-09-27T00:42:13.115Z,76.70
2022-09-27T00:44:39.670Z,76.86
2022-09-27T00:47:06.044Z,76.98
2022-09-27T00:49:36.333Z,76.94
2022-09-27T00:52:05.626Z,76.92
2022-09-27T00:54:34.664Z,76.90
2022-09-27T00:57:03.009Z,77.03
2022-09-27T00:59:29.452Z,76.87
2022-09-27T01:01:57.011Z,77.21
2022-09-27T01:04:26.735Z,77.15
2022-09-27T01:06:53.503Z,77.02
2022-09-27T01:09:20.933Z,76.93
2022-09-27T01:11:56.659Z,76.98
2022-09-27T01:14:29.283Z,76.85
2022-09-27T01:16:58.752Z,76.93
2022-09-27T01:19:44.040Z,77.01
2022-09-27T01:22:13.348Z,77.50
2022-09-27T01:24:39.908Z,76.94
2022-09-27T01:27:15.781Z,77.39
2022-09-27T01:30:11.457Z,77.23
2022-09-27T01:32:52.254Z,77.62
2022-09-27T01:35:32.363Z,77.14
2022-09-27T01:38:17.557Z,77.49
2022-09-27T01:40:54.451Z,77.55
2022-09-27T01:43:38.910Z,77.44
2022-09-27T01:46:08.801Z,77.60
2022-09-27T01:49:08.243Z,77.38
2022-09-27T01:51:41.935Z,77.34
2022-09-27T01:54:11.959Z,77.30
2022-09-27T01:56:58.035Z,77.41
2022-09-27T01:59:29.791Z,77.75
2022-09-27T02:02:14.808Z,77.82
2022-09-27T02:05:09.744Z,77.93
2022-09-27T02:07:50.752Z,78.13
2022-09-27T02:10:22.938Z,78.48
2022-09-27T02:12:59.902Z,78.31
2022-09-27T02:15:27.285Z,78.80
2022-09-27T02:18:16.726Z,78.88
2022-09-27T02:20:49.861Z,78.83
2022-09-27T02:23:22.565Z,78.53
2022-09-27T02:25:58.665Z,78.76
2022-09-27T02:28:40.056Z,78.62
2022-09-27T02:31:09.045Z,78.71
2022-09-27T02:33:49.301Z,78.70
2022-09-27T02:36:15.814Z,78.60
2022-09-27T02:38:43.208Z,78.95
2022-09-27T02:41:17.764Z,78.60
2022-09-27T02:43:45.522Z,78.64
2022-09-27T02:46:31.695Z,78.93
2022-09-27T02:49:25.336Z,78.69
2022-09-27T02:52:10.908Z,78.69
2022-09-27T02:54:46.552Z,78.95
2022-09-27T02:57:34.403Z,78.67
2022-09-27T03:00:20.660Z,78.86
2022-09-27T03:02:58.029Z,78.93
2022-09-27T03:06:03.915Z,78.71
2022-09-27T03:08:30.353Z,78.57
2022-09-27T03:10:56.820Z,78.75
2022-09-27T03:13:23.530Z,78.79
2022-09-27T03:15:50.327Z,78.42
2022-09-27T03:18:35.168Z,78.54
2022-09-27T03:21:20.087Z,78.28
2022-09-27T03:23:46.493Z,78.53
2022-09-27T03:26:13.419Z,78.41
2022-09-27T03:28:40.069Z,78.29
2022-09-27T03:31:06.612Z,78.13
2022-09-27T03:34:02.062Z,78.19
2022-09-27T03:36:28.799Z,78.13
2022-09-27T03:38:55.168Z,78.05
2022-09-27T03:41:21.589Z,78.21
2022-09-27T03:43:48.179Z,78.19
2022-09-27T03:46:14.710Z,78.16
2022-09-27T03:48:42.539Z,77.79
2022-09-27T03:51:09.634Z,78.07
2022-09-27T03:53:36.009Z,78.07
2022-09-27T03:56:02.679Z,77.84
2022-09-27T03:58:29.705Z,77.55
2022-09-27T04:03:38.197Z,77.69
2022-09-27T04:06:14.011Z,77.40
2022-09-27T04:08:43.741Z,77.59
2022-09-27T04:11:10.817Z,77.71
2022-09-27T04:13:39.545Z,77.56
2022-09-27T04:16:07.799Z,77.69
2022-09-27T04:19:10.657Z,77.62
2022-09-27T04:21:50.788Z,77.55
2022-09-27T04:24:17.635Z,77.51
2022-09-27T04:26:56.812Z,77.49
2022-09-27T04:29:26.060Z,77.09
2022-09-27T04:31:54.264Z,77.15
2022-09-27T04:35:17.302Z,77.27
2022-09-27T04:37:45.084Z,77.30
2022-09-27T04:40:11.541Z,76.78
2022-09-27T04:42:38.122Z,76.94
2022-09-27T04:45:05.482Z,77.20
2022-09-27T04:47:33.007Z,77.06
2022-09-27T04:49:59.585Z,76.82
2022-09-27T04:52:26.008Z,77.17
2022-09-27T04:54:52.595Z,77.09
2022-09-27T04:57:19.504Z,77.04
2022-09-27T04:59:45.924Z,77.02
2022-09-27T05:02:13.309Z,76.88
2022-09-27T05:04:59.233Z,76.96
2022-09-27T05:07:30.037Z,76.85
2022-09-27T05:10:03.267Z,76.80
2022-09-27T05:12:30.211Z,77.10
2022-09-27T05:14:59.723Z,76.84
2022-09-27T05:17:45.579Z,77.23
2022-09-27T05:20:37.875Z,77.12
2022-09-27T05:23:12.625Z,76.83
2022-09-27T05:25:39.003Z,76.52
2022-09-27T05:28:05.443Z,76.63
2022-09-27T05:30:31.896Z,76.64
2022-09-27T05:33:08.371Z,76.63
2022-09-27T05:35:45.686Z,76.55
2022-09-27T05:38:12.565Z,76.68
2022-09-27T05:40:42.934Z,76.24
2022-09-27T05:43:11.250Z,76.41
2022-09-27T05:45:37.926Z,76.35
2022-09-27T05:48:05.709Z,76.48
2022-09-27T05:50:38.612Z,76.58
2022-09-27T05:53:05.825Z,76.42
2022-09-27T05:55:32.574Z,76.36
2022-09-27T05:58:00.968Z,76.39
2022-09-27T06:00:37.841Z,76.38
2022-09-27T06:03:14.194Z,76.29
2022-09-27T06:06:01.748Z,75.99
2022-09-27T06:08:41.516Z,76.02
2022-09-27T06:11:12.776Z,76.27
2022-09-27T06:13:39.539Z,75.82
2022-09-27T06:16:06.685Z,75.64
2022-09-27T06:18:35.337Z,75.15
2022-09-27T06:21:02.380Z,75.54
2022-09-27T06:23:30.292Z,75.15
2022-09-27T06:26:00.887Z,75.37
2022-09-27T06:28:47.138Z,74.94
2022-09-27T06:31:14.302Z,74.73
2022-09-27T06:33:48.415Z,74.84
2022-09-27T06:36:18.052Z,74.96
2022-09-27T06:38:49.758Z,74.66
2022-09-27T06:41:30.823Z,74.56
2022-09-27T06:44:14.439Z,74.45
2022-09-27T06:46:46.499Z,74.94
2022-09-27T06:49:12.883Z,74.91
2022-09-27T06:51:40.725Z,74.78
2022-09-27T06:54:07.108Z,74.69
2022-09-27T06:56:33.497Z,74.59
2022-09-27T06:59:19.361Z,74.01
2022-09-27T07:01:45.908Z,74.09
2022-09-27T07:04:18.846Z,73.86
2022-09-27T07:06:59.841Z,73.91
2022-09-27T07:09:30.823Z,73.24
2022-09-27T07:11:57.579Z,72.71
2022-09-27T07:14:25.946Z,72.84
2022-09-27T07:16:53.415Z,72.19
2022-09-27T07:19:19.825Z,71.21
2022-09-27T07:21:50.380Z,71.60
2022-09-27T07:24:16.798Z,71.65
2022-09-27T07:26:43.352Z,71.26
2022-09-27T07:29:12.037Z,71.27
2022-09-27T07:31:38.762Z,71.25
2022-09-27T07:34:05.816Z,70.94
2022-09-27T07:36:32.508Z,70.77
2022-09-27T07:38:59.291Z,71.25
2022-09-27T07:41:26.311Z,71.28
2022-09-27T07:43:54.205Z,71.34
2022-09-27T07:46:21.374Z,71.07
2022-09-27T07:48:55.603Z,71.30
2022-09-27T07:51:45.000Z,71.03
2022-09-27T07:54:40.831Z,71.16
2022-09-27T07:57:30.423Z,70.21
2022-09-27T07:59:58.435Z,70.04
2022-09-27T08:02:25.239Z,69.92
2022-09-27T08:04:53.140Z,69.57
2022-09-27T08:07:19.596Z,68.74
2022-09-27T08:09:50.583Z,68.84
2022-09-27T08:12:17.342Z,68.65
2022-09-27T08:14:48.293Z,68.81
2022-09-27T08:17:15.541Z,68.74
2022-09-27T08:20:06.245Z,68.43
2022-09-27T08:22:51.234Z,68.63
2022-09-27T08:25:25.391Z,67.52
2022-09-27T08:28:14.693Z,67.30
2022-09-27T08:30:44.968Z,67.61
2022-09-27T08:33:12.135Z,66.98
2022-09-27T08:35:38.569Z,66.88
2022-09-27T08:38:08.721Z,66.30
2022-09-27T08:40:55.902Z,66.87
2022-09-27T08:43:30.025Z,67.04
2022-09-27T08:46:09.086Z,67.28
2022-09-27T08:48:38.160Z,67.87
2022-09-27T08:51:06.039Z,67.44
2022-09-27T08:53:39.899Z,67.88
2022-09-27T08:56:09.088Z,68.10
2022-09-27T08:58:42.139Z,68.37
2022-09-27T09:01:16.653Z,68.24
2022-09-27T09:03:58.141Z,67.52
2022-09-27T09:06:42.968Z,67.75
2022-09-27T09:09:09.492Z,67.92
2022-09-27T09:11:59.973Z,67.11
2022-09-27T09:14:26.349Z,66.92
2022-09-27T09:17:13.532Z,66.37
2022-09-27T09:20:00.492Z,66.32
2022-09-27T09:22:53.246Z,65.81
2022-09-27T09:25:28.714Z,65.30
2022-09-27T09:28:11.597Z,65.45
2022-09-27T09:30:50.300Z,65.45
2022-09-27T09:33:23.084Z,65.21
2022-09-27T09:36:05.056Z,65.09
2022-09-27T09:38:40.960Z,64.95
2022-09-27T09:41:13.181Z,64.69
2022-09-27T09:43:48.128Z,64.23
2022-09-27T09:46:36.732Z,64.60
2022-09-27T09:49:10.837Z,63.98
2022-09-27T09:51:44.215Z,63.37
2022-09-27T09:54:19.902Z,63.96
2022-09-27T09:56:48.859Z,63.92
2022-09-27T09:59:23.693Z,64.04
2022-09-27T10:01:55.720Z,63.46
2022-09-27T10:04:27.980Z,63.45
2022-09-27T10:06:58.652Z,63.00
2022-09-27T10:09:28.753Z,63.28
2022-09-27T10:12:13.594Z,63.75
2022-09-27T10:14:45.322Z,63.75
2022-09-27T10:17:14.684Z,63.25
2022-09-27T10:19:41.337Z,62.51
2022-09-27T10:22:16.833Z,62.43
2022-09-27T10:25:01.766Z,62.38
2022-09-27T10:27:57.545Z,62.75
2022-09-27T10:30:32.327Z,62.31
2022-09-27T10:33:07.673Z,62.50
2022-09-27T10:35:45.150Z,62.34
2022-09-27T10:38:20.444Z,62.16
2022-09-27T10:40:47.608Z,62.09
2022-09-27T10:43:34.189Z,62.20
2022-09-27T10:46:25.911Z,62.22
2022-09-27T10:49:14.073Z,62.26
2022-09-27T10:51:40.794Z,61.91
2022-09-27T10:54:18.662Z,61.70
2022-09-27T10:56:45.088Z,61.83
2022-09-27T10:59:17.989Z,61.84
2022-09-27T11:01:45.973Z,60.92
2022-09-27T11:05:01.997Z,59.46
2022-09-27T11:07:28.575Z,57.90
2022-09-27T11:10:22.128Z,58.20
2022-09-27T11:13:05.859Z,57.98
2022-09-27T11:15:38.367Z,57.53
2022-09-27T11:18:31.237Z,57.28
2022-09-27T11:21:14.455Z,56.65
2022-09-27T11:23:59.193Z,56.73
2022-09-27T11:26:31.413Z,56.59
2022-09-27T11:29:04.054Z,56.24
2022-09-27T11:32:09.516Z,56.18
2022-09-27T11:34:39.040Z,56.65
2022-09-27T11:37:12.520Z,56.37
2022-09-27T11:39:51.778Z,56.52
2022-09-27T11:42:33.165Z,56.27
2022-09-27T11:45:37.128Z,54.35
2022-09-27T11:48:14.468Z,54.28
2022-09-27T11:50:49.613Z,53.33
2022-09-27T11:53:34.543Z,53.35
2022-09-27T11:56:13.353Z,52.83
2022-09-27T11:58:42.855Z,52.20
2022-09-27T12:01:20.508Z,51.64
2022-09-27T12:03:46.953Z,50.81
2022-09-27T12:06:21.116Z,50.69
2022-09-27T12:09:09.045Z,51.13
2022-09-27T12:11:44.684Z,51.05
2022-09-27T12:14:12.266Z,51.39
2022-09-27T12:16:40.354Z,51.58
2022-09-27T12:19:12.999Z,51.84
2022-09-27T12:22:00.922Z,51.33
2022-09-27T12:24:28.201Z,50.62
2022-09-27T12:27:42.739Z,50.95
2022-09-27T12:30:13.967Z,51.00
2022-09-27T12:32:59.664Z,50.76
2022-09-27T12:35:31.061Z,51.01
2022-09-27T12:38:17.793Z,50.74
2022-09-27T12:40:47.508Z,50.54
2022-09-27T12:43:25.347Z,51.35
2022-09-27T12:46:30.548Z,51.60
2022-09-27T12:49:05.329Z,52.02
2022-09-27T12:51:36.895Z,52.79
2022-09-27T12:54:09.546Z,52.98
2022-09-27T12:57:00.543Z,53.94
2022-09-27T12:59:35.887Z,54.29
2022-09-27T13:02:14.311Z,54.23
2022-09-27T13:04:40.809Z,54.74
2022-09-27T13:07:25.251Z,55.00
2022-09-27T13:09:59.267Z,55.29
2022-09-27T13:12:27.108Z,55.46
2022-09-27T13:14:54.115Z,55.72
2022-09-27T13:17:44.731Z,55.65
2022-09-27T13:20:39.267Z,55.43
2022-09-27T13:23:18.998Z,55.17
2022-09-27T13:25:55.543Z,55.00
2022-09-27T13:28:35.313Z,55.64
2022-09-27T13:31:07.410Z,55.65
2022-09-27T13:33:34.526Z,55.71
2022-09-27T13:36:22.724Z,55.26
2022-09-27T13:39:06.604Z,55.76
2022-09-27T13:41:51.539Z,55.74
2022-09-27T13:44:36.776Z,56.00
2022-09-27T13:47:05.178Z,56.13
2022-09-27T13:49:39.705Z,56.21
2022-09-27T13:52:15.024Z,55.66
2022-09-27T13:54:55.798Z,55.68
2022-09-27T13:57:45.158Z,55.79
2022-09-27T14:00:23.695Z,55.75
2022-09-27T14:02:55.302Z,55.93
2022-09-27T14:05:25.987Z,55.87
2022-09-27T14:07:53.122Z,55.66
2022-09-27T14:10:22.857Z,55.03
2022-09-27T14:12:50.897Z,54.64
2022-09-27T14:15:20.530Z,54.79
2022-09-27T14:17:47.147Z,54.96
2022-09-27T14:20:33.932Z,54.95
2022-09-27T14:23:02.951Z,55.22
2022-09-27T14:25:38.765Z,55.55
2022-09-27T14:28:18.320Z,56.08
2022-09-27T14:31:10.802Z,56.35
2022-09-27T14:34:08.977Z,57.06
2022-09-27T14:36:56.361Z,57.86
2022-09-27T14:39:31.186Z,57.40
2022-09-27T14:41:59.669Z,57.61
2022-09-27T14:44:28.398Z,57.22
2022-09-27T14:47:11.187Z,57.05
2022-09-27T14:49:46.110Z,56.96
2022-09-27T14:52:17.830Z,56.92
2022-09-27T14:54:45.064Z,56.82
2022-09-27T14:57:14.430Z,56.94
2022-09-27T14:59:44.481Z,56.88
2022-09-27T15:02:17.339Z,56.77
2022-09-27T15:04:46.650Z,56.64
2022-09-27T15:07:15.838Z,57.29
2022-09-27T15:09:42.924Z,57.09
2022-09-27T15:12:10.862Z,56.84
2022-09-27T15:14:41.116Z,56.87
2022-09-27T15:17:14.087Z,56.39
2022-09-27T15:19:41.218Z,56.21
2022-09-27T15:22:29.217Z,56.08
2022-09-27T15:25:04.255Z,56.44
2022-09-27T15:27:30.684Z,56.29
2022-09-27T15:29:58.224Z,56.17
2022-09-27T15:32:26.282Z,56.39
2022-09-27T15:34:53.339Z,56.14
2022-09-27T15:37:34.887Z,56.41
2022-09-27T15:40:16.746Z,56.53
2022-09-27T15:42:55.183Z,56.86
2022-09-27T15:45:35.211Z,56.68
2022-09-27T15:48:15.147Z,56.74
2022-09-27T15:50:42.027Z,57.19
2022-09-27T15:53:09.594Z,56.70
2022-09-27T15:55:43.479Z,56.42
2022-09-27T15:58:16.521Z,56.43
2022-09-27T16:00:56.402Z,57.16
2022-09-27T16:03:24.381Z,57.20
2022-09-27T16:05:50.870Z,57.43
2022-09-27T16:08:17.337Z,57.32
2022-09-27T16:10:50.595Z,57.93
2022-09-27T16:13:16.990Z,58.07
2022-09-27T16:15:44.184Z,57.81
2022-09-27T16:18:10.628Z,57.58
2022-09-27T16:20:37.117Z,57.88
2022-09-27T16:23:03.659Z,57.93
2022-09-27T16:25:30.531Z,58.16
2022-09-27T16:27:58.281Z,58.50
2022-09-27T16:30:24.884Z,58.33
2022-09-27T16:32:51.723Z,58.57
2022-09-27T16:35:19.111Z,57.84
2022-09-27T16:37:45.951Z,58.13
2022-09-27T16:40:13.238Z,57.66
2022-09-27T16:42:39.664Z,57.53
2022-09-27T16:45:10.578Z,57.44
2022-09-27T16:47:38.570Z,57.67
2022-09-27T16:50:23.744Z,57.98
2022-09-27T16:52:50.196Z,58.40
2022-09-27T16:55:21.034Z,58.69
2022-09-27T16:57:47.879Z,58.86
2022-09-27T17:00:14.550Z,59.11
2022-09-27T17:02:41.415Z,59.40
2022-09-27T17:05:07.907Z,59.23
2022-09-27T17:07:34.319Z,59.11
2022-09-27T17:10:00.655Z,59.30
2022-09-27T17:12:27.076Z,59.55
2022-09-27T17:14:53.565Z,59.93
2022-09-27T17:17:20.068Z,60.12
2022-09-27T17:19:48.425Z,60.33
2022-09-27T17:22:14.793Z,60.36
2022-09-27T17:24:41.100Z,60.25
2022-09-27T17:27:07.463Z,60.39
2022-09-27T17:29:33.838Z,60.46
2022-09-27T17:32:00.576Z,60.51
2022-09-27T17:34:27.788Z,60.83
2022-09-27T17:36:54.361Z,60.89
2022-09-27T17:39:21.241Z,60.77
2022-09-27T17:41:51.128Z,61.41
2022-09-27T17:44:20.733Z,61.41
2022-09-27T17:46:47.500Z,61.68
2022-09-27T17:49:32.738Z,61.71
2022-09-27T17:51:59.380Z,61.95
2022-09-27T17:54:28.128Z,62.36
2022-09-27T17:56:56.226Z,62.53
2022-09-27T17:59:22.919Z,62.80
2022-09-27T18:01:49.888Z,63.43
2022-09-27T18:04:18.044Z,63.17
2022-09-27T18:06:46.143Z,63.33
2022-09-27T18:09:13.893Z,63.40
2022-09-27T18:11:40.801Z,63.97
2022-09-27T18:14:07.713Z,63.88
2022-09-27T18:16:36.968Z,63.84
2022-09-27T18:19:04.844Z,64.36
2022-09-27T18:21:31.647Z,64.50
2022-09-27T18:23:59.551Z,64.42
2022-09-27T18:26:26.873Z,65.10
2022-09-27T18:28:54.441Z,64.78
2022-09-27T18:31:21.866Z,64.83
2022-09-27T18:33:48.970Z,65.03
2022-09-27T18:36:15.410Z,65.14
2022-09-27T18:38:41.999Z,65.31
2022-09-27T18:41:16.321Z,65.48
2022-09-27T18:43:44.237Z,65.58
2022-09-27T18:46:34.995Z,65.78
2022-09-27T18:49:04.080Z,65.68
2022-09-27T18:51:30.921Z,65.99
2022-09-27T18:54:01.760Z,65.55
2022-09-27T18:56:28.600Z,65.80
2022-09-27T18:58:55.353Z,66.03
2022-09-27T19:01:22.664Z,65.97
2022-09-27T19:03:49.592Z,66.03
2022-09-27T19:06:17.831Z,66.13
2022-09-27T19:08:44.296Z,66.04
2022-09-27T19:11:17.967Z,66.00
2022-09-27T19:13:51.418Z,66.11
2022-09-27T19:16:18.463Z,66.31
2022-09-27T19:18:44.959Z,66.50
2022-09-27T19:21:12.510Z,66.41
2022-09-27T19:23:39.292Z,66.55
2022-09-27T19:26:07.066Z,66.84
2022-09-27T19:28:37.536Z,66.30
2022-09-27T19:31:05.450Z,66.56
2022-09-27T19:33:32.843Z,66.58
2022-09-27T19:35:59.949Z,66.52
2022-09-27T19:38:26.396Z,66.73
2022-09-27T19:40:53.457Z,66.76
2022-09-27T19:43:19.920Z,66.74
2022-09-27T19:45:46.346Z,66.84
2022-09-27T19:48:12.863Z,66.93
2022-09-27T19:50:39.293Z,66.99
2022-09-27T19:53:07.445Z,66.67
2022-09-27T19:55:33.937Z,66.88
2022-09-27T19:58:00.429Z,67.28
2022-09-27T20:00:26.929Z,67.05
2022-09-27T20:02:53.575Z,67.21
2022-09-27T20:05:20.036Z,67.36
2022-09-27T20:07:47.269Z,67.25
2022-09-27T20:10:14.270Z,67.24
2022-09-27T20:12:40.731Z,67.19
2022-09-27T20:15:07.409Z,67.53
2022-09-27T20:17:34.224Z,67.36
2022-09-27T20:20:00.737Z,67.82
2022-09-27T20:22:27.234Z,67.71
2022-09-27T20:24:53.736Z,67.73
2022-09-27T20:27:20.405Z,68.08
2022-09-27T20:29:48.102Z,68.03
2022-09-27T20:32:30.015Z,67.98
2022-09-27T20:34:56.639Z,68.49
2022-09-27T20:37:23.105Z,68.37
2022-09-27T20:39:50.125Z,68.34
2022-09-27T20:42:16.695Z,68.37
2022-09-27T20:44:43.084Z,68.70
2022-09-27T20:47:09.482Z,68.96
2022-09-27T20:49:35.947Z,68.78
2022-09-27T20:52:02.414Z,69.10
2022-09-27T20:54:28.782Z,69.19
2022-09-27T20:56:55.283Z,69.48
2022-09-27T20:59:22.699Z,69.43
2022-09-27T21:01:50.392Z,69.46
2022-09-27T21:04:18.211Z,69.59
2022-09-27T21:06:44.851Z,69.88
2022-09-27T21:09:18.195Z,69.89
2022-09-27T21:11:45.661Z,70.18
2022-09-27T21:14:12.205Z,70.45
2022-09-27T21:16:38.649Z,70.55
2022-09-27T21:19:05.586Z,70.44
2022-09-27T21:21:31.961Z,70.68
2022-09-27T21:23:59.285Z,70.64
2022-09-27T21:26:27.284Z,71.05
2022-09-27T21:28:55.600Z,70.76
2022-09-27T21:31:26.351Z,71.23
2022-09-27T21:33:54.527Z,71.21
2022-09-27T21:36:22.262Z,71.30
2022-09-27T21:38:48.775Z,71.15
2022-09-27T21:41:15.933Z,71.42
2022-09-27T21:43:43.908Z,71.22
2022-09-27T21:46:13.355Z,71.23
2022-09-27T21:48:41.063Z,71.16
2022-09-27T21:51:07.528Z,71.28
2022-09-27T21:53:35.029Z,71.31
2022-09-27T21:56:01.662Z,71.39
2022-09-27T21:58:28.240Z,71.54
2022-09-27T22:00:55.030Z,71.83
2022-09-27T22:03:21.516Z,71.59
2022-09-27T22:05:48.998Z,71.92
2022-09-27T22:08:16.676Z,71.70
2022-09-27T22:10:44.149Z,72.19
2022-09-27T22:13:11.033Z,71.89
2022-09-27T22:15:37.477Z,72.18
2022-09-27T22:18:04.166Z,71.87
2022-09-27T22:20:31.680Z,72.09
2022-09-27T22:22:58.086Z,72.05
2022-09-27T22:25:24.489Z,72.17
2022-09-27T22:27:50.886Z,72.37
2022-09-27T22:30:17.988Z,72.27
2022-09-27T22:32:45.144Z,72.55
2022-09-27T22:35:11.547Z,72.62
2022-09-27T22:37:37.985Z,72.40
2022-09-27T22:40:05.262Z,72.40
2022-09-27T22:42:31.704Z,72.74
2022-09-27T22:44:58.125Z,72.83
2022-09-27T22:47:24.563Z,73.03
2022-09-27T22:49:50.923Z,72.70
2022-09-27T22:52:17.807Z,72.97
2022-09-27T22:54:44.173Z,72.71
2022-09-27T22:57:10.673Z,73.14
2022-09-27T22:59:37.075Z,73.52
2022-09-27T23:02:03.547Z,73.11
2022-09-27T23:04:29.944Z,73.48
2022-09-27T23:06:56.372Z,73.57
2022-09-27T23:09:22.784Z,73.61
2022-09-27T23:11:49.187Z,73.72
2022-09-27T23:14:15.771Z,73.79
2022-09-27T23:16:42.188Z,73.78
2022-09-27T23:19:09.737Z,73.92
2022-09-27T23:21:36.208Z,74.01
2022-09-27T23:24:03.318Z,74.15
2022-09-27T23:26:29.752Z,73.95
2022-09-27T23:28:57.444Z,74.29
2022-09-27T23:31:24.742Z,74.28
2022-09-27T23:33:52.002Z,74.44
2022-09-27T23:36:19.838Z,74.33
2022-09-27T23:38:47.104Z,74.34
2022-09-27T23:41:14.293Z,74.50
2022-09-27T23:43:40.726Z,74.30
2022-09-27T23:46:07.749Z,74.83
2022-09-27T23:48:34.858Z,74.79
2022-09-27T23:51:01.460Z,74.91
2022-09-27T23:53:27.843Z,74.63
2022-09-27T23:56:11.942Z,74.72
2022-09-27T23:58:39.532Z,74.80
